createdAt,value
2022-12-28T00:01:44.527Z,5.90
2022-12-28T00:04:15.779Z,5.83
2022-12-28T00:06:42.550Z,5.63
2022-12-28T00:09:11.922Z,5.63
2022-12-28T00:11:39.022Z,5.80
2022-12-28T00:14:06.160Z,5.80
2022-12-28T00:16:44.082Z,6.20
2022-12-28T00:19:15.747Z,5.67
2022-12-28T00:21:43.303Z,6.43
2022-12-28T00:24:21.005Z,5.77
2022-12-28T00:26:48.350Z,5.27
2022-12-28T00:29:15.776Z,5.60
2022-12-28T00:31:43.200Z,4.60
2022-12-28T00:34:10.166Z,5.93
2022-12-28T00:37:11.034Z,5.47
2022-12-28T00:39:23.839Z,4.97
2022-12-28T00:41:50.645Z,5.40
2022-12-28T00:44:17.324Z,5.00
2022-12-28T00:46:44.321Z,5.07
2022-12-28T00:49:11.056Z,5.00
2022-12-28T00:51:38.052Z,5.33
2022-12-28T00:54:05.074Z,4.87
2022-12-28T00:56:31.907Z,4.83
2022-12-28T00:59:00.000Z,4.33
2022-12-28T01:01:28.107Z,4.60
2022-12-28T01:03:59.321Z,4.40
2022-12-28T01:06:27.270Z,4.40
2022-12-28T01:08:54.050Z,4.67
2022-12-28T01:11:26.815Z,4.20
2022-12-28T01:13:55.731Z,4.07
2022-12-28T01:16:28.304Z,4.20
2022-12-28T01:18:57.514Z,4.13
2022-12-28T01:21:26.630Z,4.33
2022-12-28T01:23:59.534Z,4.60
2022-12-28T01:26:27.173Z,3.60
2022-12-28T01:28:53.958Z,4.40
2022-12-28T01:31:22.486Z,3.80
2022-12-28T01:33:49.576Z,3.77
2022-12-28T01:36:19.115Z,4.27
2022-12-28T01:38:46.796Z,4.30
2022-12-28T01:41:18.920Z,4.13
2022-12-28T01:44:10.559Z,3.90
2022-12-28T01:46:49.964Z,3.10
2022-12-28T01:49:31.714Z,4.27
2022-12-28T01:52:17.250Z,3.87
2022-12-28T01:54:46.655Z,3.63
2022-12-28T01:57:15.187Z,4.23
2022-12-28T01:59:47.314Z,4.43
2022-12-28T02:02:15.712Z,4.40
2022-12-28T02:04:42.954Z,4.13
2022-12-28T02:07:10.159Z,4.03
2022-12-28T02:09:40.217Z,4.13
2022-12-28T02:12:10.972Z,4.40
2022-12-28T02:14:38.795Z,4.10
2022-12-28T02:17:07.512Z,3.83
2022-12-28T02:19:45.230Z,4.13
2022-12-28T02:22:33.219Z,4.00
2022-12-28T02:25:34.455Z,4.10
2022-12-28T02:28:21.056Z,4.50
2022-12-28T02:30:58.063Z,4.70
2022-12-28T02:33:39.999Z,4.17
2022-12-28T02:36:30.271Z,4.00
2022-12-28T02:39:05.105Z,4.37
2022-12-28T02:41:33.972Z,4.50
2022-12-28T02:44:01.153Z,4.43
2022-12-28T02:46:51.952Z,5.27
2022-12-28T02:49:45.373Z,4.73
2022-12-28T02:52:39.112Z,5.17
2022-12-28T02:55:36.916Z,5.03
2022-12-28T02:58:15.496Z,5.73
2022-12-28T03:01:11.004Z,6.30
2022-12-28T03:04:23.024Z,7.03
2022-12-28T03:07:32.295Z,6.00
2022-12-28T03:10:18.840Z,6.90
2022-12-28T03:12:49.108Z,6.90
2022-12-28T03:15:29.623Z,7.23
2022-12-28T03:18:34.551Z,6.80
2022-12-28T03:21:25.113Z,7.00
2022-12-28T03:24:12.360Z,7.03
2022-12-28T03:27:02.648Z,7.47
2022-12-28T03:29:50.819Z,6.57
2022-12-28T03:32:17.522Z,7.23
2022-12-28T03:34:44.529Z,6.93
2022-12-28T03:37:34.518Z,7.20
2022-12-28T03:40:12.468Z,6.63
2022-12-28T03:43:02.982Z,7.40
2022-12-28T03:46:05.568Z,6.23
2022-12-28T03:48:34.783Z,7.00
2022-12-28T03:51:01.404Z,7.03
2022-12-28T03:53:37.257Z,7.13
2022-12-28T03:56:20.321Z,6.93
2022-12-28T03:58:48.112Z,6.80
2022-12-28T04:01:15.824Z,7.60
2022-12-28T04:03:42.982Z,7.30
2022-12-28T04:06:13.261Z,7.20
2022-12-28T04:08:39.903Z,7.63
2022-12-28T04:11:06.903Z,7.73
2022-12-28T04:13:33.807Z,7.67
2022-12-28T04:16:07.982Z,7.27
2022-12-28T04:18:35.039Z,7.30
2022-12-28T04:21:03.541Z,6.60
2022-12-28T04:23:31.931Z,6.97
2022-12-28T04:26:03.130Z,7.07
2022-12-28T04:28:30.904Z,7.23
2022-12-28T04:30:58.691Z,6.90
2022-12-28T04:33:26.362Z,7.10
2022-12-28T04:35:53.604Z,7.97
2022-12-28T04:38:21.423Z,7.87
2022-12-28T04:40:48.015Z,6.80
2022-12-28T04:43:14.888Z,7.30
2022-12-28T04:45:41.732Z,6.73
2022-12-28T04:48:08.356Z,6.90
2022-12-28T04:50:36.651Z,6.80
2022-12-28T04:53:03.308Z,6.77
2022-12-28T04:55:32.338Z,7.27
2022-12-28T04:58:00.870Z,7.77
2022-12-28T05:00:27.650Z,6.10
2022-12-28T05:02:54.665Z,6.20
2022-12-28T05:05:21.574Z,6.33
2022-12-28T05:07:48.443Z,6.57
2022-12-28T05:10:15.128Z,6.00
2022-12-28T05:12:41.763Z,5.10
2022-12-28T05:15:08.883Z,5.90
2022-12-28T05:17:35.620Z,5.43
2022-12-28T05:20:03.120Z,5.47
2022-12-28T05:22:30.122Z,5.73
2022-12-28T05:24:56.894Z,6.10
2022-12-28T05:27:23.729Z,5.63
2022-12-28T05:29:50.343Z,6.33
2022-12-28T05:32:17.354Z,5.57
2022-12-28T05:34:44.964Z,5.10
2022-12-28T05:37:14.466Z,5.33
2022-12-28T05:39:45.417Z,5.60
2022-12-28T05:42:11.993Z,5.67
2022-12-28T05:44:38.834Z,4.83
2022-12-28T05:47:05.772Z,5.00
2022-12-28T05:49:32.396Z,5.10
2022-12-28T05:51:59.226Z,5.07
2022-12-28T05:54:25.841Z,5.10
2022-12-28T05:56:52.925Z,5.57
2022-12-28T05:59:19.553Z,5.50
2022-12-28T06:01:46.565Z,4.93
2022-12-28T06:04:19.083Z,5.20
2022-12-28T06:06:47.188Z,4.77
2022-12-28T06:09:15.001Z,5.33
2022-12-28T06:11:42.154Z,4.57
2022-12-28T06:14:08.808Z,4.07
2022-12-28T06:16:39.141Z,4.90
2022-12-28T06:19:07.843Z,4.53
2022-12-28T06:21:36.437Z,4.50
2022-12-28T06:24:06.632Z,4.90
2022-12-28T06:26:35.230Z,4.70
2022-12-28T06:29:02.119Z,4.60
2022-12-28T06:31:31.922Z,4.73
2022-12-28T06:33:59.758Z,4.73
2022-12-28T06:36:32.278Z,4.77
2022-12-28T06:39:00.431Z,4.53
2022-12-28T06:41:28.395Z,4.63
2022-12-28T06:43:55.862Z,4.63
2022-12-28T06:46:24.317Z,5.40
2022-12-28T06:48:51.370Z,5.00
2022-12-28T06:51:24.344Z,5.00
2022-12-28T06:53:52.676Z,4.80
2022-12-28T06:56:25.026Z,4.97
2022-12-28T06:58:58.465Z,6.03
2022-12-28T07:01:31.958Z,6.47
2022-12-28T07:04:00.139Z,8.73
2022-12-28T07:06:28.999Z,7.40
2022-12-28T07:09:00.796Z,8.07
2022-12-28T07:11:29.013Z,5.33
2022-12-28T07:13:56.381Z,5.50
2022-12-28T07:16:24.814Z,6.07
2022-12-28T07:18:51.644Z,4.63
2022-12-28T07:21:21.729Z,5.37
2022-12-28T07:23:49.644Z,5.60
2022-12-28T07:26:20.713Z,5.60
2022-12-28T07:28:50.055Z,5.97
2022-12-28T07:31:25.785Z,5.40
2022-12-28T07:33:53.992Z,6.17
2022-12-28T07:36:22.355Z,6.57
2022-12-28T07:38:49.757Z,5.53
2022-12-28T07:41:19.071Z,5.20
2022-12-28T07:43:45.813Z,5.57
2022-12-28T07:46:16.128Z,5.73
2022-12-28T07:48:44.040Z,5.20
2022-12-28T07:51:15.032Z,5.10
2022-12-28T07:53:44.351Z,5.27
2022-12-28T07:56:11.610Z,4.73
2022-12-28T08:01:11.800Z,5.00
2022-12-28T08:03:40.691Z,5.17
2022-12-28T08:06:20.036Z,5.07
2022-12-28T08:08:48.694Z,5.00
2022-12-28T08:11:18.812Z,4.73
2022-12-28T08:14:00.263Z,4.73
2022-12-28T08:16:40.030Z,4.70
2022-12-28T08:19:08.106Z,4.67
2022-12-28T08:21:43.431Z,3.87
2022-12-28T08:24:27.568Z,4.37
2022-12-28T08:26:54.158Z,4.20
2022-12-28T08:29:22.379Z,4.33
2022-12-28T08:31:49.733Z,4.00
2022-12-28T08:34:19.679Z,3.47
2022-12-28T08:36:46.421Z,4.07
2022-12-28T08:39:14.122Z,4.13
2022-12-28T08:41:40.688Z,3.87
2022-12-28T08:44:07.532Z,4.77
2022-12-28T08:46:35.914Z,4.27
2022-12-28T08:49:03.371Z,4.03
2022-12-28T08:51:33.772Z,5.10
2022-12-28T08:54:01.212Z,4.77
2022-12-28T08:56:30.470Z,4.00
2022-12-28T08:58:57.709Z,4.33
2022-12-28T09:01:27.747Z,4.53
2022-12-28T09:03:56.327Z,4.40
2022-12-28T09:06:30.968Z,4.33
2022-12-28T09:09:07.075Z,3.87
2022-12-28T09:11:36.073Z,3.80
2022-12-28T09:14:04.227Z,9.30
2022-12-28T09:16:30.888Z,10.03
2022-12-28T09:19:02.813Z,5.83
2022-12-28T09:21:31.980Z,4.30
2022-12-28T09:23:58.930Z,4.00
2022-12-28T09:26:29.513Z,4.03
2022-12-28T09:28:58.743Z,3.90
2022-12-28T09:31:28.945Z,3.67
2022-12-28T09:34:34.848Z,3.87
2022-12-28T09:36:45.598Z,4.27
2022-12-28T09:39:28.949Z,4.70
2022-12-28T09:41:59.288Z,3.37
2022-12-28T09:44:48.503Z,3.37
2022-12-28T09:47:33.755Z,2.73
2022-12-28T09:50:19.080Z,2.70
2022-12-28T09:53:04.865Z,2.50
2022-12-28T09:55:39.913Z,2.80
2022-12-28T09:58:14.924Z,2.50
2022-12-28T10:01:00.123Z,2.73
2022-12-28T10:03:38.645Z,2.70
2022-12-28T10:06:17.737Z,3.00
2022-12-28T10:08:51.241Z,2.90
2022-12-28T10:11:29.490Z,2.83
2022-12-28T10:13:58.220Z,2.40
2022-12-28T10:16:27.926Z,2.70
2022-12-28T10:18:54.769Z,2.67
2022-12-28T10:21:30.154Z,2.43
2022-12-28T10:26:47.735Z,2.50
2022-12-28T10:29:19.903Z,2.47
2022-12-28T10:31:58.812Z,2.60
2022-12-28T10:34:25.788Z,2.60
2022-12-28T10:36:54.596Z,2.30
2022-12-28T10:39:27.761Z,2.60
2022-12-28T10:41:58.392Z,2.67
2022-12-28T10:44:45.952Z,2.30
2022-12-28T10:47:28.656Z,2.23
2022-12-28T10:50:35.267Z,2.13
2022-12-28T10:52:42.100Z,2.70
2022-12-28T10:55:30.297Z,3.87
2022-12-28T10:58:33.491Z,2.20
2022-12-28T11:01:05.313Z,8.43
2022-12-28T11:03:37.096Z,11.83
2022-12-28T11:06:26.371Z,2.70
2022-12-28T11:09:13.431Z,2.97
2022-12-28T11:11:40.909Z,2.53
2022-12-28T11:14:33.243Z,2.67
2022-12-28T11:17:19.370Z,2.50
2022-12-28T11:19:47.868Z,2.30
2022-12-28T11:22:22.429Z,2.10
2022-12-28T11:24:49.070Z,3.13
2022-12-28T11:27:19.847Z,2.90
2022-12-28T11:29:49.447Z,3.10
2022-12-28T11:32:43.143Z,2.30
2022-12-28T11:35:19.177Z,2.00
2022-12-28T11:37:50.577Z,2.50
2022-12-28T11:40:55.102Z,2.60
2022-12-28T11:43:31.275Z,2.33
2022-12-28T11:45:58.652Z,2.33
2022-12-28T11:48:43.796Z,2.30
2022-12-28T11:51:26.966Z,2.07
2022-12-28T11:53:58.337Z,2.40
2022-12-28T11:57:01.526Z,2.40
2022-12-28T11:59:32.331Z,2.00
2022-12-28T12:02:06.248Z,2.80
2022-12-28T12:04:38.183Z,2.50
2022-12-28T12:07:04.765Z,2.07
2022-12-28T12:09:32.773Z,1.97
2022-12-28T12:12:23.732Z,2.27
2022-12-28T12:15:09.259Z,2.17
2022-12-28T12:17:43.433Z,2.07
2022-12-28T12:20:24.584Z,2.30
2022-12-28T12:23:01.974Z,2.10
2022-12-28T12:25:39.861Z,2.07
2022-12-28T12:28:29.385Z,2.20
2022-12-28T12:30:56.723Z,2.03
2022-12-28T12:33:32.158Z,1.90
2022-12-28T12:36:24.533Z,1.80
2022-12-28T12:39:21.619Z,1.90
2022-12-28T12:42:17.329Z,2.60
2022-12-28T12:45:25.275Z,1.60
2022-12-28T12:48:14.848Z,2.37
2022-12-28T12:51:21.513Z,1.90
2022-12-28T12:54:12.707Z,2.10
2022-12-28T12:56:51.003Z,2.17
2022-12-28T12:59:43.242Z,1.97
2022-12-28T13:02:36.437Z,4.87
2022-12-28T13:05:05.319Z,1.90
2022-12-28T13:07:33.471Z,2.33
2022-12-28T13:10:04.291Z,2.17
2022-12-28T13:12:30.998Z,1.87
2022-12-28T13:15:00.572Z,2.10
2022-12-28T13:17:28.906Z,2.10
2022-12-28T13:20:19.691Z,1.73
2022-12-28T13:22:48.011Z,2.70
2022-12-28T13:25:27.628Z,2.10
2022-12-28T13:27:55.585Z,3.47
2022-12-28T13:30:23.960Z,3.27
2022-12-28T13:32:53.785Z,1.90
2022-12-28T13:35:23.689Z,2.40
2022-12-28T13:38:00.416Z,2.27
2022-12-28T13:40:53.566Z,2.30
2022-12-28T13:43:39.457Z,2.00
2022-12-28T13:46:10.465Z,2.40
2022-12-28T13:48:41.740Z,2.67
2022-12-28T14:05:34.626Z,1.90
2022-12-28T14:08:05.120Z,2.20
2022-12-28T14:10:32.323Z,2.20
2022-12-28T14:30:31.215Z,2.40
2022-12-28T14:33:10.031Z,1.93
2022-12-28T14:35:48.493Z,2.17
2022-12-28T14:38:33.274Z,2.47
2022-12-28T14:41:02.252Z,2.00
2022-12-28T14:43:37.180Z,2.73
2022-12-28T14:46:16.214Z,2.37
2022-12-28T14:48:46.332Z,2.27
2022-12-28T14:51:17.586Z,2.00
2022-12-28T14:53:45.516Z,7.13
2022-12-28T14:56:13.551Z,2.37
2022-12-28T14:58:51.890Z,2.20
2022-12-28T15:01:21.663Z,2.30
2022-12-28T15:03:52.387Z,3.47
2022-12-28T15:06:20.476Z,2.10
2022-12-28T15:08:48.976Z,3.27
2022-12-28T15:11:18.760Z,2.10
2022-12-28T15:13:45.715Z,2.80
2022-12-28T15:16:13.667Z,1.93
2022-12-28T15:18:48.442Z,3.00
2022-12-28T15:21:21.076Z,2.40
2022-12-28T15:23:55.073Z,3.00
2022-12-28T15:26:53.253Z,2.80
2022-12-28T15:29:39.510Z,2.63
2022-12-28T15:32:06.742Z,3.07
2022-12-28T15:34:33.747Z,2.80
2022-12-28T15:37:00.765Z,2.50
2022-12-28T15:39:27.484Z,2.93
2022-12-28T15:41:54.498Z,2.60
2022-12-28T15:44:21.327Z,2.83
2022-12-28T15:46:51.474Z,2.13
2022-12-28T15:49:19.280Z,4.27
2022-12-28T15:51:46.483Z,4.20
2022-12-28T15:54:14.122Z,2.47
2022-12-28T15:56:41.722Z,2.30
2022-12-28T15:59:13.718Z,2.30
2022-12-28T16:01:43.610Z,2.80
2022-12-28T16:04:10.924Z,2.90
2022-12-28T16:06:43.949Z,2.30
2022-12-28T16:09:11.336Z,3.27
2022-12-28T16:11:38.439Z,2.23
2022-12-28T16:14:07.276Z,2.43
2022-12-28T16:16:38.968Z,2.17
2022-12-28T16:19:07.403Z,3.07
2022-12-28T16:21:34.809Z,2.47
2022-12-28T16:24:01.718Z,2.80
2022-12-28T16:26:29.620Z,2.40
2022-12-28T16:28:57.716Z,2.50
2022-12-28T16:31:33.574Z,2.87
2022-12-28T16:34:16.684Z,2.87
2022-12-28T16:36:46.667Z,2.57
2022-12-28T16:39:15.881Z,3.07
2022-12-28T16:41:42.866Z,3.40
2022-12-28T16:44:15.327Z,3.70
2022-12-28T16:46:42.937Z,3.57
2022-12-28T16:49:12.910Z,3.70
2022-12-28T16:51:42.534Z,3.30
2022-12-28T16:54:14.167Z,3.30
2022-12-28T16:56:40.765Z,5.67
2022-12-28T16:59:07.374Z,3.30
2022-12-28T17:01:35.479Z,4.33
2022-12-28T17:04:04.484Z,5.73
2022-12-28T17:06:31.504Z,3.43
2022-12-28T17:09:01.521Z,3.47
2022-12-28T17:11:28.281Z,3.43
2022-12-28T17:14:03.782Z,3.60
2022-12-28T17:16:31.087Z,3.50
2022-12-28T17:18:57.748Z,3.20
2022-12-28T17:21:24.376Z,3.20
2022-12-28T17:23:50.988Z,2.90
2022-12-28T17:26:17.654Z,3.40
2022-12-28T17:28:44.321Z,3.00
2022-12-28T17:31:14.892Z,3.17
2022-12-28T17:33:46.680Z,3.27
2022-12-28T17:36:13.787Z,3.40
2022-12-28T17:38:42.056Z,3.40
2022-12-28T17:41:27.694Z,3.70
2022-12-28T17:43:57.237Z,2.90
2022-12-28T17:46:26.198Z,3.10
2022-12-28T17:48:58.597Z,3.00
2022-12-28T17:51:26.732Z,3.00
2022-12-28T17:53:55.228Z,2.93
2022-12-28T17:56:34.045Z,2.97
2022-12-28T17:59:02.754Z,2.97
2022-12-28T18:01:29.602Z,3.00
2022-12-28T18:03:57.385Z,3.50
2022-12-28T18:06:24.611Z,3.70
2022-12-28T18:08:52.301Z,3.47
2022-12-28T18:11:19.379Z,3.47
2022-12-28T18:13:47.070Z,3.13
2022-12-28T18:16:16.637Z,3.23
2022-12-28T18:18:43.702Z,3.40
2022-12-28T18:21:21.132Z,3.20
2022-12-28T18:23:51.388Z,3.40
2022-12-28T18:26:21.269Z,3.00
2022-12-28T18:28:48.014Z,3.17
2022-12-28T18:31:17.006Z,3.60
2022-12-28T18:33:45.929Z,3.87
2022-12-28T18:36:17.437Z,3.37
2022-12-28T18:38:46.266Z,3.47
2022-12-28T18:41:15.495Z,4.27
2022-12-28T18:43:42.770Z,3.93
2022-12-28T18:46:10.721Z,3.60
2022-12-28T18:48:42.588Z,3.20
2022-12-28T18:51:16.089Z,2.87
2022-12-28T18:53:43.331Z,2.83
2022-12-28T18:56:15.347Z,3.00
2022-12-28T18:58:42.720Z,2.63
2022-12-28T19:01:39.714Z,2.90
2022-12-28T19:04:01.324Z,2.60
2022-12-28T19:06:29.727Z,2.97
2022-12-28T19:09:01.047Z,2.37
2022-12-28T19:11:28.388Z,2.30
2022-12-28T19:13:55.507Z,2.30
2022-12-28T19:16:30.265Z,2.63
2022-12-28T19:18:58.437Z,1.90
2022-12-28T19:21:30.955Z,2.20
2022-12-28T19:24:31.934Z,2.40
2022-12-28T19:26:58.587Z,2.43
2022-12-28T19:29:25.272Z,2.30
2022-12-28T19:31:51.975Z,2.33
2022-12-28T19:34:18.671Z,2.20
2022-12-28T19:36:45.285Z,2.30
2022-12-28T19:39:12.099Z,2.10
2022-12-28T19:41:39.277Z,2.40
2022-12-28T19:44:06.778Z,2.40
2022-12-28T19:46:33.466Z,2.93
2022-12-28T19:49:02.092Z,2.40
2022-12-28T19:51:31.775Z,2.53
2022-12-28T19:53:59.712Z,2.70
2022-12-28T19:56:26.492Z,2.47
2022-12-28T19:58:57.843Z,2.33
2022-12-28T20:01:28.433Z,2.00
2022-12-28T20:03:55.834Z,2.37
2022-12-28T20:06:29.957Z,2.53
2022-12-28T20:08:58.549Z,2.30
2022-12-28T20:11:25.499Z,2.10
2022-12-28T20:13:54.612Z,2.37
2022-12-28T20:16:22.079Z,2.50
2022-12-28T20:18:50.527Z,2.60
2022-12-28T20:21:19.974Z,2.47
2022-12-28T20:23:52.410Z,2.27
2022-12-28T20:26:20.232Z,2.77
2022-12-28T20:28:48.855Z,2.90
2022-12-28T20:31:16.165Z,2.63
2022-12-28T20:33:43.648Z,3.10
2022-12-28T20:36:18.270Z,3.03
2022-12-28T20:38:45.588Z,2.33
2022-12-28T20:41:40.533Z,2.57
2022-12-28T20:44:10.281Z,2.57
2022-12-28T20:46:37.234Z,2.80
2022-12-28T20:49:05.261Z,2.37
2022-12-28T20:51:31.935Z,2.43
2022-12-28T20:53:58.566Z,2.50
2022-12-28T20:56:25.300Z,2.87
2022-12-28T20:58:52.099Z,2.77
2022-12-28T21:01:19.010Z,2.57
2022-12-28T21:03:46.160Z,2.87
2022-12-28T21:06:14.225Z,3.10
2022-12-28T21:08:41.282Z,2.67
2022-12-28T21:11:08.468Z,3.00
2022-12-28T21:13:38.114Z,3.00
2022-12-28T21:16:09.779Z,3.33
2022-12-28T21:18:36.662Z,3.20
2022-12-28T21:21:22.245Z,3.47
2022-12-28T21:23:49.455Z,3.07
2022-12-28T21:26:18.342Z,3.23
2022-12-28T21:28:45.711Z,3.23
2022-12-28T21:31:14.100Z,3.23
2022-12-28T21:33:41.477Z,3.13
2022-12-28T21:36:18.796Z,3.70
2022-12-28T21:38:47.434Z,3.53
2022-12-28T21:41:37.990Z,3.70
2022-12-28T21:44:07.325Z,3.60
2022-12-28T21:46:34.121Z,3.87
2022-12-28T21:49:03.833Z,3.43
2022-12-28T21:51:38.369Z,3.73
2022-12-28T21:54:11.608Z,3.90
2022-12-28T21:56:39.142Z,3.10
2022-12-28T22:02:13.587Z,3.90
2022-12-28T22:05:02.986Z,3.80
2022-12-28T22:07:30.859Z,3.73
2022-12-28T22:10:16.515Z,3.73
2022-12-28T22:12:43.597Z,3.60
2022-12-28T22:15:35.313Z,4.10
2022-12-28T22:18:05.400Z,3.70
2022-12-28T22:20:34.979Z,3.63
2022-12-28T22:23:02.826Z,3.60
2022-12-28T22:25:30.968Z,3.40
2022-12-28T22:27:58.690Z,3.83
2022-12-28T22:30:26.760Z,3.60
2022-12-28T22:32:53.496Z,3.50
2022-12-28T22:35:21.023Z,3.40
2022-12-28T22:37:48.083Z,3.33
2022-12-28T22:40:15.431Z,3.80
2022-12-28T22:42:46.845Z,3.60
2022-12-28T22:45:16.888Z,3.10
2022-12-28T22:47:44.153Z,3.10
2022-12-28T22:50:13.821Z,3.50
2022-12-28T22:52:40.924Z,3.20
2022-12-28T22:55:08.383Z,3.07
2022-12-28T22:57:35.906Z,2.93
2022-12-28T23:00:04.353Z,3.33
2022-12-28T23:02:31.591Z,2.87
2022-12-28T23:04:59.877Z,2.77
2022-12-28T23:07:27.079Z,3.53
2022-12-28T23:09:53.859Z,2.73
2022-12-28T23:12:20.824Z,3.13
2022-12-28T23:15:06.639Z,3.20
2022-12-28T23:17:33.835Z,3.10
2022-12-28T23:20:19.604Z,2.97
2022-12-28T23:23:12.395Z,2.77
2022-12-28T23:25:59.911Z,2.87
2022-12-28T23:28:27.036Z,2.40
2022-12-28T23:30:54.571Z,2.60
2022-12-28T23:33:21.264Z,3.00
2022-12-28T23:35:48.619Z,2.60
2022-12-28T23:38:15.348Z,2.50
2022-12-28T23:41:37.683Z,2.50
2022-12-28T23:44:04.377Z,2.50
2022-12-28T23:46:31.603Z,2.60
2022-12-28T23:48:58.398Z,2.20
2022-12-28T23:51:25.079Z,2.60
2022-12-28T23:53:52.155Z,2.23
2022-12-28T23:56:18.859Z,2.20
2022-12-28T23:58:45.538Z,2.70
